createdAt,value
2018-03-04T00:02:01.870Z,1.90
2018-03-04T00:04:30.704Z,1.90
2018-03-04T00:06:58.745Z,1.90
2018-03-04T00:09:27.139Z,1.80
2018-03-04T00:11:55.510Z,1.80
2018-03-04T00:14:23.202Z,1.70
2018-03-04T00:16:52.405Z,1.70
2018-03-04T00:19:20.253Z,1.70
2018-03-04T00:21:48.345Z,1.70
2018-03-04T00:24:16.084Z,1.70
2018-03-04T00:26:43.936Z,1.70
2018-03-04T00:29:11.644Z,1.70
2018-03-04T00:31:40.180Z,1.70
2018-03-04T00:34:07.946Z,1.70
2018-03-04T00:36:35.838Z,1.80
2018-03-04T00:39:03.686Z,1.80
2018-03-04T00:41:31.443Z,1.80
2018-03-04T00:43:59.534Z,1.90
2018-03-04T00:46:27.568Z,1.90
2018-03-04T00:48:55.493Z,1.90
2018-03-04T00:51:23.229Z,1.80
2018-03-04T00:53:50.994Z,1.90
2018-03-04T00:56:18.756Z,1.80
2018-03-04T00:58:47.123Z,1.80
2018-03-04T01:01:14.883Z,1.90
2018-03-04T01:03:42.760Z,1.90
2018-03-04T01:06:10.730Z,1.90
2018-03-04T01:08:39.248Z,2.00
2018-03-04T01:11:09.113Z,2.00
2018-03-04T01:13:37.203Z,2.00
2018-03-04T01:16:05.137Z,2.00
2018-03-04T01:18:32.846Z,2.00
2018-03-04T01:21:00.594Z,2.10
2018-03-04T01:23:28.697Z,2.10
2018-03-04T01:25:56.426Z,2.00
2018-03-04T01:28:24.596Z,2.00
2018-03-04T01:30:52.398Z,2.00
2018-03-04T01:33:20.850Z,2.10
2018-03-04T01:35:48.552Z,2.00
2018-03-04T01:38:17.796Z,1.90
2018-03-04T01:40:45.670Z,1.90
2018-03-04T01:43:13.615Z,2.00
2018-03-04T01:45:41.467Z,2.10
2018-03-04T01:48:09.170Z,2.10
2018-03-04T01:50:37.001Z,2.10
2018-03-04T01:53:04.906Z,2.20
2018-03-04T01:55:33.531Z,2.20
2018-03-04T01:58:02.066Z,2.30
2018-03-04T02:00:31.255Z,2.30
2018-03-04T02:02:59.030Z,2.40
2018-03-04T02:05:27.030Z,2.30
2018-03-04T02:07:54.774Z,2.30
2018-03-04T02:10:22.517Z,2.20
2018-03-04T02:12:50.206Z,2.10
2018-03-04T02:15:18.038Z,2.00
2018-03-04T02:17:45.801Z,2.00
2018-03-04T02:20:13.587Z,1.90
2018-03-04T02:22:41.343Z,1.90
2018-03-04T02:25:09.039Z,1.90
2018-03-04T02:27:36.759Z,1.80
2018-03-04T02:30:04.668Z,1.70
2018-03-04T02:32:32.369Z,1.70
2018-03-04T02:35:00.067Z,1.70
2018-03-04T02:37:28.023Z,1.70
2018-03-04T02:39:55.790Z,1.70
2018-03-04T02:42:23.646Z,2.00
2018-03-04T02:44:52.174Z,2.40
2018-03-04T02:47:21.121Z,2.50
2018-03-04T02:49:48.901Z,2.50
2018-03-04T02:52:16.778Z,2.50
2018-03-04T02:54:44.760Z,2.60
2018-03-04T02:57:12.591Z,2.60
2018-03-04T02:59:40.505Z,2.60
2018-03-04T03:02:09.062Z,2.60
2018-03-04T03:04:36.902Z,2.50
2018-03-04T03:07:04.778Z,2.60
2018-03-04T03:09:32.539Z,2.60
2018-03-04T03:12:00.257Z,2.60
2018-03-04T03:14:29.291Z,2.50
2018-03-04T03:16:58.024Z,2.50
2018-03-04T03:19:26.710Z,2.50
2018-03-04T03:21:55.182Z,2.60
2018-03-04T03:24:22.881Z,2.60
2018-03-04T03:26:51.635Z,2.60
2018-03-04T03:29:19.452Z,2.40
2018-03-04T03:31:47.192Z,2.40
2018-03-04T03:34:14.882Z,2.40
2018-03-04T03:36:42.788Z,2.40
2018-03-04T03:39:10.729Z,2.40
2018-03-04T03:41:38.524Z,2.30
2018-03-04T03:44:06.219Z,2.50
2018-03-04T03:46:34.006Z,2.50
2018-03-04T03:49:01.775Z,2.70
2018-03-04T03:51:29.558Z,2.80
2018-03-04T03:53:57.317Z,2.90
2018-03-04T03:56:25.098Z,2.90
2018-03-04T03:58:52.830Z,3.00
2018-03-04T04:01:20.507Z,3.00
2018-03-04T04:03:48.226Z,3.00
2018-03-04T04:06:16.658Z,2.90
2018-03-04T04:08:45.454Z,2.80
2018-03-04T04:11:13.150Z,2.80
2018-03-04T04:13:41.719Z,2.60
2018-03-04T04:16:10.355Z,2.50
2018-03-04T04:18:38.045Z,2.50
2018-03-04T04:21:05.997Z,2.50
2018-03-04T04:23:33.716Z,2.20
2018-03-04T04:26:01.764Z,2.20
2018-03-04T04:28:30.330Z,2.00
2018-03-04T04:30:58.090Z,2.00
2018-03-04T04:33:25.868Z,1.80
2018-03-04T04:35:54.335Z,1.70
2018-03-04T04:38:22.845Z,1.70
2018-03-04T04:40:51.347Z,1.80
2018-03-04T04:43:19.074Z,1.70
2018-03-04T04:45:46.775Z,1.90
2018-03-04T04:48:14.563Z,1.80
2018-03-04T04:50:42.344Z,1.70
2018-03-04T04:53:10.096Z,1.70
2018-03-04T04:55:38.070Z,1.40
2018-03-04T04:58:05.942Z,1.10
2018-03-04T05:00:34.149Z,1.20
2018-03-04T05:03:03.178Z,0.90
2018-03-04T05:05:30.961Z,0.90
2018-03-04T05:07:59.159Z,0.70
2018-03-04T05:10:28.522Z,0.80
2018-03-04T05:12:56.713Z,0.80
2018-03-04T05:15:24.776Z,1.00
2018-03-04T05:17:52.691Z,1.10
2018-03-04T05:20:21.965Z,0.90
2018-03-04T05:22:49.897Z,0.80
2018-03-04T05:25:18.209Z,0.70
2018-03-04T05:27:46.486Z,0.80
2018-03-04T05:30:14.537Z,1.00
2018-03-04T05:32:42.607Z,1.00
2018-03-04T05:35:12.413Z,0.90
2018-03-04T05:37:40.569Z,0.90
2018-03-04T05:40:08.836Z,1.00
2018-03-04T05:42:36.772Z,0.80
2018-03-04T05:45:04.714Z,0.70
2018-03-04T05:47:32.892Z,0.50
2018-03-04T05:50:00.868Z,0.50
2018-03-04T05:52:29.247Z,0.60
2018-03-04T05:54:57.190Z,0.60
2018-03-04T05:57:25.167Z,0.60
2018-03-04T05:59:53.257Z,0.70
2018-03-04T06:02:22.669Z,0.80
2018-03-04T06:04:50.732Z,0.80
2018-03-04T06:07:18.501Z,0.80
2018-03-04T06:09:46.360Z,0.80
2018-03-04T06:12:14.133Z,0.90
2018-03-04T06:14:42.095Z,1.00
2018-03-04T06:17:10.155Z,1.00
2018-03-04T06:19:38.087Z,1.00
2018-03-04T06:22:05.889Z,1.00
2018-03-04T06:24:33.673Z,1.00
2018-03-04T06:27:01.498Z,1.00
2018-03-04T06:29:30.393Z,1.00
2018-03-04T06:31:58.572Z,0.90
2018-03-04T06:34:26.796Z,0.90
2018-03-04T06:36:54.832Z,0.90
2018-03-04T06:39:22.746Z,1.00
2018-03-04T06:41:50.798Z,1.00
2018-03-04T06:44:19.780Z,1.10
2018-03-04T06:46:48.650Z,1.10
2018-03-04T06:49:16.514Z,1.10
2018-03-04T06:51:44.466Z,1.00
2018-03-04T06:54:12.332Z,1.00
2018-03-04T06:56:40.225Z,1.00
2018-03-04T06:59:09.087Z,1.20
2018-03-04T07:01:36.976Z,1.20
2018-03-04T07:04:04.843Z,1.50
2018-03-04T07:06:32.647Z,2.20
2018-03-04T07:09:00.790Z,2.90
2018-03-04T07:11:29.050Z,3.10
2018-03-04T07:13:57.109Z,3.00
2018-03-04T07:16:25.071Z,2.60
2018-03-04T07:18:54.905Z,2.50
2018-03-04T07:21:22.912Z,2.80
2018-03-04T07:23:51.646Z,4.10
2018-03-04T07:26:20.355Z,4.10
2018-03-04T07:28:48.443Z,4.60
2018-03-04T07:31:16.282Z,4.50
2018-03-04T07:33:44.441Z,4.60
2018-03-04T07:36:12.330Z,4.90
2018-03-04T07:38:41.101Z,5.00
2018-03-04T07:41:09.079Z,5.00
2018-03-04T07:43:37.680Z,5.10
2018-03-04T07:46:05.749Z,5.50
2018-03-04T07:48:33.711Z,5.60
2018-03-04T07:51:02.718Z,5.90
2018-03-04T07:53:31.373Z,6.30
2018-03-04T07:55:59.337Z,6.40
2018-03-04T07:58:27.269Z,6.60
2018-03-04T08:00:55.058Z,6.90
2018-03-04T08:03:26.147Z,7.60
2018-03-04T08:05:54.075Z,7.90
2018-03-04T08:08:21.928Z,8.20
2018-03-04T08:10:49.822Z,8.00
2018-03-04T08:13:17.820Z,8.10
2018-03-04T08:15:45.631Z,8.10
2018-03-04T08:18:14.639Z,7.70
2018-03-04T08:20:42.646Z,8.00
2018-03-04T08:23:10.685Z,7.70
2018-03-04T08:25:38.575Z,7.80
2018-03-04T08:28:18.421Z,8.50
2018-03-04T08:30:46.367Z,8.70
2018-03-04T08:33:14.249Z,9.20
2018-03-04T08:35:42.616Z,9.10
2018-03-04T08:38:10.578Z,9.70
2018-03-04T08:40:38.527Z,10.40
2018-03-04T08:43:06.637Z,10.00
2018-03-04T08:45:35.816Z,10.40
2018-03-04T08:48:03.665Z,10.30
2018-03-04T08:50:31.753Z,10.20
2018-03-04T08:52:59.866Z,9.60
2018-03-04T08:55:28.206Z,9.80
2018-03-04T08:57:56.141Z,9.40
2018-03-04T09:00:24.148Z,9.20
2018-03-04T09:02:52.111Z,9.20
2018-03-04T09:05:20.003Z,9.30
2018-03-04T09:07:47.928Z,9.30
2018-03-04T09:10:16.019Z,9.10
2018-03-04T09:12:43.908Z,9.10
2018-03-04T09:15:11.776Z,9.60
2018-03-04T09:17:39.819Z,9.50
2018-03-04T09:20:07.793Z,9.60
2018-03-04T09:22:36.173Z,9.50
2018-03-04T09:25:04.167Z,9.70
2018-03-04T09:27:32.942Z,9.20
2018-03-04T09:30:00.842Z,9.40
2018-03-04T09:32:29.500Z,9.90
2018-03-04T09:34:57.756Z,9.80
2018-03-04T09:37:26.058Z,10.30
2018-03-04T09:39:54.108Z,9.80
2018-03-04T09:42:21.971Z,9.70
2018-03-04T09:44:49.836Z,9.90
2018-03-04T09:47:17.809Z,9.80
2018-03-04T09:49:45.776Z,9.50
2018-03-04T09:52:13.876Z,9.20
2018-03-04T09:54:42.266Z,9.20
2018-03-04T09:57:11.218Z,9.30
2018-03-04T09:59:39.213Z,9.20
2018-03-04T10:02:08.081Z,9.10
2018-03-04T10:04:36.150Z,9.10
2018-03-04T10:07:04.140Z,9.20
2018-03-04T10:09:32.189Z,9.20
2018-03-04T10:12:00.262Z,9.00
2018-03-04T10:14:28.251Z,8.90
2018-03-04T10:16:56.414Z,9.30
2018-03-04T10:19:24.285Z,9.40
2018-03-04T10:21:52.190Z,9.30
2018-03-04T10:24:21.234Z,9.50
2018-03-04T10:26:49.225Z,9.50
2018-03-04T10:29:18.717Z,9.40
2018-03-04T10:31:46.678Z,9.30
2018-03-04T10:34:15.284Z,9.30
2018-03-04T10:36:44.581Z,9.50
2018-03-04T10:39:12.812Z,9.50
2018-03-04T10:41:40.625Z,9.50
2018-03-04T10:44:10.169Z,9.70
2018-03-04T10:46:38.913Z,9.70
2018-03-04T10:49:06.788Z,9.70
2018-03-04T10:51:34.982Z,9.70
2018-03-04T10:54:04.675Z,9.60
2018-03-04T10:56:32.557Z,9.60
2018-03-04T10:59:01.118Z,9.60
2018-03-04T11:01:35.122Z,9.70
2018-03-04T11:04:03.283Z,9.70
2018-03-04T11:06:31.839Z,9.90
2018-03-04T11:08:59.650Z,9.90
2018-03-04T11:11:28.137Z,10.00
2018-03-04T11:13:56.904Z,9.90
2018-03-04T11:16:24.883Z,9.90
2018-03-04T11:18:53.550Z,10.10
2018-03-04T11:21:21.552Z,10.00
2018-03-04T11:23:49.496Z,10.10
2018-03-04T11:26:17.587Z,9.90
2018-03-04T11:28:45.557Z,9.80
2018-03-04T11:31:14.254Z,10.20
2018-03-04T11:33:43.000Z,10.20
2018-03-04T11:36:10.879Z,10.10
2018-03-04T11:38:38.791Z,10.20
2018-03-04T11:41:07.553Z,10.00
2018-03-04T11:43:36.659Z,10.00
2018-03-04T11:46:05.819Z,10.30
2018-03-04T11:48:34.354Z,10.30
2018-03-04T11:51:03.039Z,10.50
2018-03-04T11:53:31.704Z,10.60
2018-03-04T11:55:59.706Z,10.60
2018-03-04T11:58:27.758Z,10.50
2018-03-04T12:00:56.428Z,10.60
2018-03-04T12:03:24.392Z,10.50
2018-03-04T12:05:52.335Z,10.50
2018-03-04T12:08:20.305Z,10.60
2018-03-04T12:10:48.178Z,10.60
2018-03-04T12:13:16.058Z,10.70
2018-03-04T12:15:43.934Z,10.90
2018-03-04T12:18:11.889Z,11.10
2018-03-04T12:20:40.252Z,11.20
2018-03-04T12:23:08.157Z,11.40
2018-03-04T12:25:36.088Z,11.40
2018-03-04T12:28:04.195Z,11.50
2018-03-04T12:30:32.473Z,11.50
2018-03-04T12:33:00.511Z,11.70
2018-03-04T12:35:28.520Z,11.50
2018-03-04T12:37:57.289Z,11.80
2018-03-04T12:40:25.348Z,11.70
2018-03-04T12:42:53.305Z,11.90
2018-03-04T12:45:21.386Z,12.00
2018-03-04T12:47:50.377Z,12.10
2018-03-04T12:50:18.339Z,12.00
2018-03-04T12:52:46.530Z,12.10
2018-03-04T12:55:14.709Z,12.40
2018-03-04T12:57:42.666Z,12.40
2018-03-04T13:00:10.829Z,12.40
2018-03-04T13:02:38.632Z,12.50
2018-03-04T13:05:06.774Z,12.30
2018-03-04T13:07:35.145Z,12.20
2018-03-04T13:10:03.207Z,12.40
2018-03-04T13:12:31.221Z,12.50
2018-03-04T13:15:01.613Z,10.80
2018-03-04T13:17:29.805Z,10.80
2018-03-04T13:19:57.899Z,10.30
2018-03-04T13:22:27.684Z,10.10
2018-03-04T13:24:55.739Z,10.00
2018-03-04T13:27:23.676Z,10.10
2018-03-04T13:29:51.680Z,10.20
2018-03-04T13:32:19.779Z,10.30
2018-03-04T13:34:47.718Z,10.30
2018-03-04T13:37:15.610Z,10.30
2018-03-04T13:39:43.807Z,10.50
2018-03-04T13:42:12.733Z,11.30
2018-03-04T13:44:40.722Z,11.30
2018-03-04T13:47:08.643Z,11.80
2018-03-04T13:49:37.428Z,11.80
2018-03-04T13:52:06.216Z,12.20
2018-03-04T13:54:34.900Z,11.90
2018-03-04T13:57:04.685Z,12.30
2018-03-04T13:59:33.385Z,12.20
2018-03-04T14:02:01.825Z,12.50
2018-03-04T14:04:29.840Z,12.40
2018-03-04T14:06:59.028Z,12.30
2018-03-04T14:09:28.833Z,12.60
2018-03-04T14:11:57.839Z,13.00
2018-03-04T14:14:26.178Z,12.90
2018-03-04T14:16:54.315Z,13.20
2018-03-04T14:19:22.749Z,13.10
2018-03-04T14:21:51.563Z,12.80
2018-03-04T14:24:20.316Z,12.80
2018-03-04T14:26:49.128Z,12.80
2018-03-04T14:29:20.039Z,12.60
2018-03-04T14:31:48.549Z,12.40
2018-03-04T14:34:20.183Z,12.40
2018-03-04T14:36:49.436Z,12.50
2018-03-04T14:39:18.424Z,12.20
2018-03-04T14:41:47.445Z,12.10
2018-03-04T14:44:15.607Z,12.00
2018-03-04T14:46:44.043Z,12.20
2018-03-04T14:49:12.187Z,12.40
2018-03-04T14:51:41.257Z,12.70
2018-03-04T14:54:10.963Z,12.60
2018-03-04T14:56:39.636Z,12.60
2018-03-04T14:59:07.512Z,12.70
2018-03-04T15:01:35.690Z,12.60
2018-03-04T15:04:03.974Z,12.50
2018-03-04T15:06:32.250Z,12.80
2018-03-04T15:09:01.673Z,12.90
2018-03-04T15:11:30.625Z,13.20
2018-03-04T15:13:59.406Z,13.20
2018-03-04T15:16:27.685Z,12.60
2018-03-04T15:18:55.962Z,12.90
2018-03-04T15:21:26.081Z,12.70
2018-03-04T15:23:55.351Z,12.60
2018-03-04T15:26:24.293Z,13.10
2018-03-04T15:28:53.677Z,12.40
2018-03-04T15:31:23.222Z,12.40
2018-03-04T15:33:52.787Z,12.20
2018-03-04T15:36:22.227Z,12.70
2018-03-04T15:38:50.665Z,12.70
2018-03-04T15:41:19.556Z,13.30
2018-03-04T15:43:48.484Z,13.60
2018-03-04T15:46:17.247Z,13.40
2018-03-04T15:48:45.775Z,14.10
2018-03-04T15:51:14.303Z,14.80
2018-03-04T15:53:43.030Z,14.60
2018-03-04T15:56:12.592Z,13.80
2018-03-04T15:58:41.083Z,13.80
2018-03-04T16:01:09.351Z,13.40
2018-03-04T16:03:38.031Z,13.00
2018-03-04T16:06:06.370Z,12.40
2018-03-04T16:08:35.983Z,11.80
2018-03-04T16:11:04.096Z,11.50
2018-03-04T16:13:32.866Z,10.70
2018-03-04T16:16:01.881Z,10.10
2018-03-04T16:18:30.598Z,10.10
2018-03-04T16:21:00.118Z,10.60
2018-03-04T16:23:28.676Z,10.60
2018-03-04T16:25:57.232Z,10.80
2018-03-04T16:28:25.306Z,10.90
2018-03-04T16:30:53.469Z,10.40
2018-03-04T16:33:24.051Z,10.40
2018-03-04T16:35:54.312Z,10.30
2018-03-04T16:38:23.383Z,10.10
2018-03-04T16:40:51.698Z,9.80
2018-03-04T16:43:20.192Z,9.20
2018-03-04T16:45:48.408Z,8.90
2018-03-04T16:48:16.648Z,8.70
2018-03-04T16:50:45.700Z,8.60
2018-03-04T16:53:13.900Z,8.50
2018-03-04T16:55:42.129Z,8.20
2018-03-04T16:58:10.867Z,7.90
2018-03-04T17:00:40.062Z,7.80
2018-03-04T17:03:08.747Z,7.70
2018-03-04T17:05:37.762Z,7.70
2018-03-04T17:08:06.798Z,7.50
2018-03-04T17:10:34.903Z,7.20
2018-03-04T17:13:03.468Z,7.00
2018-03-04T17:15:31.672Z,7.00
2018-03-04T17:18:00.006Z,7.00
2018-03-04T17:20:28.316Z,6.80
2018-03-04T17:22:56.653Z,6.70
2018-03-04T17:25:24.660Z,6.70
2018-03-04T17:27:53.291Z,6.50
2018-03-04T17:30:22.274Z,6.80
2018-03-04T17:32:52.072Z,7.20
2018-03-04T17:35:21.410Z,7.10
2018-03-04T17:37:50.141Z,7.10
2018-03-04T17:40:19.389Z,6.90
2018-03-04T17:42:48.645Z,6.60
2018-03-04T17:45:18.735Z,6.30
2018-03-04T17:47:48.714Z,6.10
2018-03-04T17:50:18.755Z,5.90
2018-03-04T17:52:48.034Z,5.90
2018-03-04T17:55:17.491Z,6.20
2018-03-04T17:57:47.215Z,6.60
2018-03-04T18:00:17.394Z,6.50
2018-03-04T18:02:46.333Z,6.50
2018-03-04T18:05:15.825Z,6.40
2018-03-04T18:07:45.734Z,6.40
2018-03-04T18:10:14.216Z,6.70
2018-03-04T18:12:43.539Z,7.20
2018-03-04T18:15:12.697Z,6.90
2018-03-04T18:17:42.026Z,7.20
2018-03-04T18:20:12.527Z,7.40
2018-03-04T18:22:42.671Z,7.20
2018-03-04T18:25:12.896Z,7.20
2018-03-04T18:27:42.214Z,7.30
2018-03-04T18:30:12.114Z,7.30
2018-03-04T18:32:41.391Z,7.30
2018-03-04T18:35:11.288Z,7.40
2018-03-04T18:37:40.683Z,7.40
2018-03-04T18:40:10.859Z,7.30
2018-03-04T18:42:40.396Z,7.30
2018-03-04T18:45:09.162Z,7.30
2018-03-04T18:47:38.774Z,7.20
2018-03-04T18:50:08.327Z,7.10
2018-03-04T18:52:37.920Z,7.10
2018-03-04T18:55:06.893Z,6.90
2018-03-04T18:57:35.629Z,6.90
2018-03-04T19:00:04.873Z,6.90
2018-03-04T19:02:34.210Z,6.70
2018-03-04T19:05:03.064Z,6.70
2018-03-04T19:07:32.687Z,7.10
2018-03-04T19:10:02.037Z,7.10
2018-03-04T19:12:31.075Z,7.00
2018-03-04T19:14:59.471Z,7.00
2018-03-04T19:17:27.666Z,6.90
2018-03-04T19:19:56.661Z,6.80
2018-03-04T19:22:25.223Z,6.80
2018-03-04T19:24:53.663Z,6.70
2018-03-04T19:27:22.803Z,6.40
2018-03-04T19:29:51.201Z,6.40
2018-03-04T19:32:19.444Z,6.10
2018-03-04T19:34:47.780Z,6.30
2018-03-04T19:37:16.368Z,6.20
2018-03-04T19:39:45.590Z,6.30
2018-03-04T19:42:14.218Z,6.30
2018-03-04T19:44:42.964Z,6.20
2018-03-04T19:47:11.361Z,6.50
2018-03-04T19:49:39.927Z,6.50
2018-03-04T19:52:10.293Z,6.20
2018-03-04T19:54:38.780Z,6.00
2018-03-04T19:57:07.050Z,5.90
2018-03-04T19:59:35.433Z,6.20
2018-03-04T20:02:04.369Z,6.10
2018-03-04T20:04:33.326Z,5.70
2018-03-04T20:07:01.693Z,5.70
2018-03-04T20:09:30.116Z,5.40
2018-03-04T20:12:00.410Z,5.10
2018-03-04T20:14:28.984Z,5.10
2018-03-04T20:16:57.355Z,5.10
2018-03-04T20:19:26.226Z,5.00
2018-03-04T20:21:54.793Z,4.90
2018-03-04T20:24:24.349Z,4.80
2018-03-04T20:26:53.836Z,4.80
2018-03-04T20:29:22.931Z,4.80
2018-03-04T20:31:51.393Z,4.90
2018-03-04T20:34:19.559Z,5.00
2018-03-04T20:36:48.788Z,5.00
2018-03-04T20:39:16.955Z,5.00
2018-03-04T20:41:46.665Z,4.90
2018-03-04T20:44:15.468Z,4.90
2018-03-04T20:46:43.815Z,4.90
2018-03-04T20:49:12.384Z,4.90
2018-03-04T20:51:41.518Z,5.00
2018-03-04T20:54:09.683Z,5.00
2018-03-04T20:56:37.964Z,5.10
2018-03-04T20:59:06.512Z,5.10
2018-03-04T21:01:34.924Z,5.10
2018-03-04T21:04:04.536Z,5.00
2018-03-04T21:06:32.702Z,5.00
2018-03-04T21:09:00.979Z,4.90
2018-03-04T21:11:29.212Z,4.80
2018-03-04T21:13:57.944Z,4.80
2018-03-04T21:16:27.000Z,5.00
2018-03-04T21:18:55.476Z,5.00
2018-03-04T21:21:23.895Z,5.00
2018-03-04T21:23:52.395Z,5.00
2018-03-04T21:26:21.459Z,5.00
2018-03-04T21:28:50.220Z,5.00
2018-03-04T21:31:18.643Z,5.00
2018-03-04T21:33:46.917Z,5.00
2018-03-04T21:36:15.428Z,5.10
2018-03-04T21:38:43.628Z,5.10
2018-03-04T21:41:12.860Z,5.20
2018-03-04T21:43:41.766Z,5.20
2018-03-04T21:46:10.851Z,5.10
2018-03-04T21:48:39.128Z,5.10
2018-03-04T21:51:07.103Z,5.00
2018-03-04T21:53:35.344Z,5.10
2018-03-04T21:56:03.753Z,5.10
2018-03-04T21:58:32.173Z,5.10
2018-03-04T22:01:00.313Z,4.90
2018-03-04T22:03:28.374Z,4.90
2018-03-04T22:05:56.836Z,4.90
2018-03-04T22:08:25.369Z,4.80
2018-03-04T22:10:53.617Z,4.70
2018-03-04T22:13:21.953Z,4.70
2018-03-04T22:15:50.113Z,4.70
2018-03-04T22:18:19.215Z,5.00
2018-03-04T22:20:48.154Z,5.00
2018-03-04T22:23:16.225Z,4.90
2018-03-04T22:25:44.562Z,5.20
2018-03-04T22:28:12.874Z,5.30
2018-03-04T22:30:40.818Z,5.30
2018-03-04T22:33:09.732Z,5.20
2018-03-04T22:35:38.453Z,5.10
2018-03-04T22:38:06.490Z,5.20
2018-03-04T22:40:34.563Z,5.30
2018-03-04T22:43:02.638Z,5.30
2018-03-04T22:45:32.034Z,5.30
2018-03-04T22:48:05.653Z,5.20
2018-03-04T22:50:35.601Z,5.40
2018-03-04T22:53:03.723Z,5.50
2018-03-04T22:55:31.795Z,5.60
2018-03-04T22:57:59.904Z,5.40
2018-03-04T23:00:28.040Z,5.40
2018-03-04T23:02:56.826Z,5.50
2018-03-04T23:05:25.102Z,5.50
2018-03-04T23:07:53.688Z,5.30
2018-03-04T23:10:22.070Z,5.30
2018-03-04T23:12:50.034Z,5.30
2018-03-04T23:15:18.210Z,5.40
2018-03-04T23:17:46.414Z,5.30
2018-03-04T23:20:14.760Z,5.30
2018-03-04T23:22:42.787Z,5.20
2018-03-04T23:25:10.937Z,5.20
2018-03-04T23:27:39.893Z,5.20
2018-03-04T23:30:07.910Z,5.20
2018-03-04T23:32:37.220Z,5.10
2018-03-04T23:35:05.782Z,5.10
2018-03-04T23:37:35.563Z,4.90
2018-03-04T23:40:03.634Z,4.90
2018-03-04T23:42:31.705Z,4.80
2018-03-04T23:44:59.914Z,4.70
2018-03-04T23:47:29.792Z,4.80
2018-03-04T23:49:58.782Z,4.70
2018-03-04T23:52:26.699Z,4.60
2018-03-04T23:54:55.030Z,4.60
2018-03-04T23:57:23.817Z,4.70
2018-03-04T23:59:52.506Z,4.70
